📊 Raw Sensor Data

Showing records 43101 to 43125 of 85,011 total

ID Distance (ft) Battery V Battery A Int Temp (°F) Int Humid (%) Ext Temp (°F) Solar V RSSI SNR Time Stamp
41923 15.5 3.89 0 70 52 66 4.60 -75 8 05/28/2025 08:00 PM
41922 15.5 3.95 0 73 53 68 4.50 -72 8 05/28/2025 07:45 PM
41921 15.5 3.96 -10 78 51 72 4.50 -73 7 05/28/2025 07:15 PM
41920 15.6 3.99 10 80 51 74 4.50 -72 8 05/28/2025 07:00 PM
41919 15.6 3.97 37 82 51 75 4.50 -75 8 05/28/2025 06:45 PM
41918 15.6 4.01 63 84 51 76 4.50 -75 8 05/28/2025 06:30 PM
41917 15.6 3.92 0 86 50 80 5.10 -73 8 05/28/2025 06:15 PM
41916 15.6 3.92 0 88 49 80 5.10 -75 8 05/28/2025 06:00 PM
41915 15.6 3.92 6 89 48 81 5.10 -73 7 05/28/2025 05:45 PM
41914 15.6 3.99 9 90 47 82 5.10 -74 8 05/28/2025 05:30 PM
41913 15.6 3.92 9 91 46 83 5.10 -73 8 05/28/2025 05:15 PM
41912 15.6 3.94 9 91 46 84 5.10 -74 7 05/28/2025 05:00 PM
41911 15.6 3.92 7 91 45 80 5.10 -73 8 05/28/2025 04:45 PM
41910 15.6 3.92 9 90 44 84 5.10 -73 7 05/28/2025 04:30 PM
41909 15.6 3.94 9 90 44 82 5.10 -74 8 05/28/2025 04:15 PM
41908 15.6 3.92 0 89 43 80 5.10 -74 7 05/28/2025 04:00 PM
41907 15.6 3.92 9 88 43 81 5.10 -72 8 05/28/2025 03:45 PM
41906 15.6 4.02 9 87 43 78 5.10 -74 8 05/28/2025 03:30 PM
41905 15.6 3.91 9 86 42 80 5.10 -72 7 05/28/2025 03:00 PM
41904 15.6 3.91 9 85 42 78 5.10 -75 7 05/28/2025 02:45 PM
41903 15.6 3.91 9 84 42 78 5.10 -75 8 05/28/2025 02:30 PM
41902 15.6 3.91 9 83 42 76 5.10 -74 7 05/28/2025 02:15 PM
41901 15.6 3.91 0 83 42 77 5.10 -74 8 05/28/2025 02:00 PM
41900 15.7 3.91 9 83 42 75 5.10 -75 8 05/28/2025 01:45 PM
41899 15.6 3.91 0 83 42 77 5.10 -75 8 05/28/2025 01:30 PM